createdAt,value
2019-03-16T00:00:32.348Z,-1.79
2019-03-16T00:01:42.376Z,-1.89
2019-03-16T00:03:04.622Z,-1.87
2019-03-16T00:04:14.549Z,-1.94
2019-03-16T00:05:24.518Z,-1.84
2019-03-16T00:06:34.433Z,-1.84
2019-03-16T00:07:44.108Z,-1.92
2019-03-16T00:08:54.029Z,-1.92
2019-03-16T00:10:04.049Z,-1.97
2019-03-16T00:11:13.972Z,-1.89
2019-03-16T00:12:23.889Z,-1.86
2019-03-16T00:13:33.827Z,-1.94
2019-03-16T00:14:43.497Z,-1.94
2019-03-16T00:15:53.511Z,-1.87
2019-03-16T00:17:03.537Z,-2
2019-03-16T00:18:13.455Z,-1.93
2019-03-16T00:19:23.396Z,-1.94
2019-03-16T00:20:33.070Z,-1.9
2019-03-16T00:21:43.084Z,-2.02
2019-03-16T00:22:53.017Z,-1.93
2019-03-16T00:24:02.967Z,-1.97
2019-03-16T00:25:12.884Z,-1.94
2019-03-16T00:26:22.819Z,-1.9
2019-03-16T00:27:32.840Z,-1.93
2019-03-16T00:28:42.760Z,-1.97
2019-03-16T00:29:52.676Z,-1.96
2019-03-16T00:31:02.602Z,-1.92
2019-03-16T00:32:18.490Z,-1.97
2019-03-16T00:33:28.527Z,-1.99
2019-03-16T00:34:38.444Z,-1.94
2019-03-16T00:35:48.364Z,-2
2019-03-16T00:36:58.300Z,-2
2019-03-16T00:38:08.213Z,-1.97
2019-03-16T00:39:18.234Z,-1.94
2019-03-16T00:40:28.156Z,-2
2019-03-16T00:41:38.096Z,-2.02
2019-03-16T00:42:48.015Z,-1.97
2019-03-16T00:43:57.936Z,-2.05
2019-03-16T00:45:07.877Z,-2.05
2019-03-16T00:46:17.818Z,-2.04
2019-03-16T00:47:27.741Z,-2
2019-03-16T00:48:37.679Z,-2.02
2019-03-16T00:49:47.598Z,-2.04
2019-03-16T00:50:57.615Z,-2.02
2019-03-16T00:52:07.528Z,-2
2019-03-16T00:53:17.458Z,-1.97
2019-03-16T00:54:27.371Z,-1.97
2019-03-16T00:55:37.285Z,-2
2019-03-16T00:56:47.203Z,-1.99
2019-03-16T00:57:57.119Z,-2.02
2019-03-16T00:59:07.036Z,-2
2019-03-16T01:00:16.955Z,-1.97
2019-03-16T01:01:26.866Z,-2.05
2019-03-16T01:02:37.833Z,-2
2019-03-16T01:03:47.840Z,-2
2019-03-16T01:04:57.779Z,-2.04
2019-03-16T01:06:08.064Z,-2.04
2019-03-16T01:07:17.988Z,-2.05
2019-03-16T01:08:27.940Z,-2.04
2019-03-16T01:09:37.602Z,-2.04
2019-03-16T01:10:49.034Z,-2.05
2019-03-16T01:11:58.982Z,-1.96
2019-03-16T01:13:08.913Z,-2.04
2019-03-16T01:14:18.840Z,-2
2019-03-16T01:15:28.759Z,-2.05
2019-03-16T01:16:38.423Z,-1.99
2019-03-16T01:17:48.338Z,-1.99
2019-03-16T01:18:58.257Z,-2.05
2019-03-16T01:20:08.292Z,-2.02
2019-03-16T01:21:18.218Z,-2
2019-03-16T01:22:28.179Z,-1.96
2019-03-16T01:23:37.841Z,-2.02
2019-03-16T01:24:47.766Z,-2.02
2019-03-16T01:25:57.551Z,-2.02
2019-03-16T01:27:07.471Z,-2
2019-03-16T01:28:17.138Z,-2.04
2019-03-16T01:29:27.055Z,-2.04
2019-03-16T01:30:36.972Z,-2.04
2019-03-16T01:31:46.940Z,-2.04
2019-03-16T01:32:56.614Z,-2.04
2019-03-16T01:34:06.612Z,-2
2019-03-16T01:35:16.547Z,-2
2019-03-16T01:36:26.464Z,-1.99
2019-03-16T01:37:36.127Z,-1.97
2019-03-16T01:38:46.059Z,-2.04
2019-03-16T01:39:55.986Z,-2
2019-03-16T01:41:05.919Z,-2.02
2019-03-16T01:42:15.580Z,-2.02
2019-03-16T01:43:25.610Z,-2.07
2019-03-16T01:44:35.558Z,-1.97
2019-03-16T01:45:45.477Z,-2.07
2019-03-16T01:46:55.402Z,-1.94
2019-03-16T01:48:05.322Z,-1.9
2019-03-16T01:49:15.356Z,-1.96
2019-03-16T01:50:26.668Z,-1.92
2019-03-16T01:51:36.603Z,-1.9
2019-03-16T01:52:46.571Z,-1.89
2019-03-16T01:53:56.486Z,-1.81
2019-03-16T01:55:06.401Z,-1.92
2019-03-16T01:56:16.327Z,-1.89
2019-03-16T01:57:26.246Z,-1.82
2019-03-16T01:58:36.162Z,-1.82
2019-03-16T01:59:46.079Z,-1.81
2019-03-16T02:00:56.048Z,-1.87
2019-03-16T02:02:06.012Z,-1.81
2019-03-16T02:03:15.932Z,-1.78
2019-03-16T02:04:25.854Z,-1.76
2019-03-16T02:05:35.772Z,-1.76
2019-03-16T02:06:45.434Z,-1.72
2019-03-16T02:07:55.352Z,-1.72
2019-03-16T02:09:05.293Z,-1.66
2019-03-16T02:10:15.211Z,-1.72
2019-03-16T02:11:25.137Z,-1.72
2019-03-16T02:12:35.203Z,-1.64
2019-03-16T02:13:45.122Z,-1.63
2019-03-16T02:14:55.058Z,-1.61
2019-03-16T02:16:15.179Z,-1.61
2019-03-16T02:17:25.101Z,-1.61
2019-03-16T02:18:35.116Z,-1.54
2019-03-16T02:19:45.035Z,-1.53
2019-03-16T02:20:54.958Z,-1.56
2019-03-16T02:22:04.890Z,-1.56
2019-03-16T02:23:14.818Z,-1.39
2019-03-16T02:24:24.791Z,-1.42
2019-03-16T02:25:34.707Z,-1.43
2019-03-16T02:26:44.626Z,-1.36
2019-03-16T02:27:54.674Z,-1.42
2019-03-16T02:29:04.602Z,-1.45
2019-03-16T02:30:14.621Z,-1.38
2019-03-16T02:31:24.548Z,-1.36
2019-03-16T02:32:34.481Z,-1.36
2019-03-16T02:33:44.263Z,-1.38
2019-03-16T02:34:54.192Z,-1.3
2019-03-16T02:36:03.986Z,-1.29
2019-03-16T02:37:13.171Z,-1.35
2019-03-16T02:38:23.140Z,-1.35
2019-03-16T02:39:33.066Z,-1.33
2019-03-16T02:40:43.016Z,-1.48
2019-03-16T02:41:53.052Z,-1.39
2019-03-16T02:43:03.024Z,-1.43
2019-03-16T02:44:16.283Z,-1.4
2019-03-16T02:45:26.215Z,-1.45
2019-03-16T02:46:36.154Z,-1.4
2019-03-16T02:47:46.005Z,-1.43
2019-03-16T02:48:55.698Z,-1.39
2019-03-16T02:50:05.739Z,-1.42
2019-03-16T02:51:15.716Z,-1.45
2019-03-16T02:52:25.643Z,-1.42
2019-03-16T02:53:35.676Z,-1.4
2019-03-16T02:54:45.632Z,-1.35
2019-03-16T02:55:55.614Z,-1.39
2019-03-16T02:57:05.544Z,-1.3
2019-03-16T02:58:15.239Z,-1.33
2019-03-16T02:59:25.269Z,-1.35
2019-03-16T03:00:35.201Z,-1.33
2019-03-16T03:01:45.161Z,-1.25
2019-03-16T03:02:55.224Z,-1.3
2019-03-16T03:04:05.173Z,-1.33
2019-03-16T03:05:15.196Z,-1.3
2019-03-16T03:06:25.126Z,-1.38
2019-03-16T03:07:35.054Z,-1.38
2019-03-16T03:08:45.018Z,-1.42
2019-03-16T03:09:54.958Z,-1.39
2019-03-16T03:11:04.993Z,-1.38
2019-03-16T03:12:14.928Z,-1.4
2019-03-16T03:13:24.871Z,-1.36
2019-03-16T03:14:34.826Z,-1.39
2019-03-16T03:15:44.755Z,-1.3
2019-03-16T03:16:54.750Z,-1.3
2019-03-16T03:18:04.765Z,-1.21
2019-03-16T03:19:14.835Z,-1.15
2019-03-16T03:20:24.791Z,-1.22
2019-03-16T03:21:34.734Z,-1.18
2019-03-16T03:22:44.785Z,-1.19
2019-03-16T03:23:54.781Z,-1.25
2019-03-16T03:25:04.709Z,-1.19
2019-03-16T03:26:14.685Z,-1.27
2019-03-16T03:27:24.659Z,-1.19
2019-03-16T03:28:34.696Z,-1.3
2019-03-16T03:29:44.645Z,-1.21
2019-03-16T03:30:54.615Z,-1.21
2019-03-16T03:32:04.695Z,-1.24
2019-03-16T03:33:14.660Z,-1.19
2019-03-16T03:34:24.664Z,-1.21
2019-03-16T03:35:34.648Z,-1.24
2019-03-16T03:36:44.587Z,-1.21
2019-03-16T03:37:54.514Z,-1.19
2019-03-16T03:39:04.466Z,-1.19
2019-03-16T03:40:14.385Z,-1.22
2019-03-16T03:41:24.334Z,-1.21
2019-03-16T03:42:34.251Z,-1.12
2019-03-16T03:43:44.191Z,-1.18
2019-03-16T03:44:54.127Z,-1.17
2019-03-16T03:46:04.125Z,-1.11
2019-03-16T03:47:14.055Z,-1.17
2019-03-16T03:48:23.760Z,-1.19
2019-03-16T03:49:33.689Z,-1.12
2019-03-16T03:50:43.430Z,-1.15
2019-03-16T03:51:53.163Z,-1.17
2019-03-16T03:53:02.831Z,-1.11
2019-03-16T03:54:12.770Z,-1.07
2019-03-16T03:55:22.753Z,-1.17
2019-03-16T03:56:32.695Z,-1.11
2019-03-16T03:57:42.648Z,-1.12
2019-03-16T03:58:52.576Z,-1.06
2019-03-16T04:00:02.515Z,-1.19
2019-03-16T04:01:12.460Z,-1.14
2019-03-16T04:02:22.381Z,-1.17
2019-03-16T04:03:32.407Z,-1.18
2019-03-16T04:04:42.365Z,-1.11
2019-03-16T04:05:52.304Z,-1.15
2019-03-16T04:07:02.233Z,-1.14
2019-03-16T04:08:12.211Z,-1.15
2019-03-16T04:09:22.138Z,-1.15
2019-03-16T04:10:32.066Z,-1.18
2019-03-16T04:11:41.994Z,-1.17
2019-03-16T04:12:52.062Z,-1.21
2019-03-16T04:14:02.030Z,-1.3
2019-03-16T04:15:12.099Z,-1.22
2019-03-16T04:16:22.065Z,-1.3
2019-03-16T04:17:32.006Z,-1.33
2019-03-16T04:18:41.951Z,-1.24
2019-03-16T04:19:51.879Z,-1.24
2019-03-16T04:21:01.560Z,-1.25
2019-03-16T04:22:11.536Z,-1.29
2019-03-16T04:23:21.462Z,-1.4
2019-03-16T04:24:31.435Z,-1.29
2019-03-16T04:25:41.163Z,-1.35
2019-03-16T04:26:51.224Z,-1.42
2019-03-16T04:28:01.156Z,-1.4
2019-03-16T04:29:11.080Z,-1.42
2019-03-16T04:30:21.010Z,-1.4
2019-03-16T04:31:31.004Z,-1.42
2019-03-16T04:32:41.029Z,-1.5
2019-03-16T04:33:50.968Z,-1.42
2019-03-16T04:35:00.895Z,-1.42
2019-03-16T04:36:10.847Z,-1.43
2019-03-16T04:37:20.848Z,-1.45
2019-03-16T04:38:30.910Z,-1.56
2019-03-16T04:39:40.836Z,-1.54
2019-03-16T04:40:50.753Z,-1.57
2019-03-16T04:42:00.686Z,-1.6
2019-03-16T04:43:10.605Z,-1.6
2019-03-16T04:44:20.520Z,-1.61
2019-03-16T04:45:30.457Z,-1.6
2019-03-16T04:46:40.387Z,-1.58
2019-03-16T04:47:50.312Z,-1.56
2019-03-16T04:49:00.228Z,-1.61
2019-03-16T04:50:10.225Z,-1.56
2019-03-16T04:51:20.144Z,-1.64
2019-03-16T04:52:30.058Z,-1.61
2019-03-16T04:53:39.976Z,-1.5
2019-03-16T04:54:49.909Z,-1.56
2019-03-16T04:55:59.885Z,-1.53
2019-03-16T04:57:09.807Z,-1.53
2019-03-16T04:58:19.735Z,-1.56
2019-03-16T04:59:29.661Z,-1.56
2019-03-16T05:00:39.599Z,-1.45
2019-03-16T05:01:49.578Z,-1.53
2019-03-16T05:02:59.503Z,-1.51
2019-03-16T05:04:09.272Z,-1.53
2019-03-16T05:05:19.190Z,-1.48
2019-03-16T05:06:29.114Z,-1.5
2019-03-16T05:07:39.138Z,-1.51
2019-03-16T05:08:49.087Z,-1.39
2019-03-16T05:09:59.006Z,-1.38
2019-03-16T05:11:12.209Z,-1.43
2019-03-16T05:12:22.125Z,-1.39
2019-03-16T05:13:32.117Z,-1.46
2019-03-16T05:14:41.787Z,-1.38
2019-03-16T05:15:53.400Z,-1.42
2019-03-16T05:17:03.315Z,-1.45
2019-03-16T05:18:13.234Z,-1.38
2019-03-16T05:19:23.152Z,-1.35
2019-03-16T05:20:33.085Z,-1.38
2019-03-16T05:21:43.080Z,-1.32
2019-03-16T05:22:52.993Z,-1.3
2019-03-16T05:24:05.374Z,-1.22
2019-03-16T05:25:15.349Z,-1.21
2019-03-16T05:26:25.319Z,-1.12
2019-03-16T05:27:35.249Z,-1.15
2019-03-16T05:28:45.169Z,-1.03
2019-03-16T05:29:55.090Z,-1
2019-03-16T05:31:05.105Z,-0.97
2019-03-16T05:32:15.020Z,-0.93
2019-03-16T05:33:25.044Z,-0.81
2019-03-16T05:34:35.009Z,-0.8
2019-03-16T05:35:44.932Z,-0.7
2019-03-16T05:36:58.561Z,-0.63
2019-03-16T05:38:08.493Z,-0.62
2019-03-16T05:39:18.164Z,-0.66
2019-03-16T05:40:28.083Z,-0.59
2019-03-16T05:41:38.036Z,-0.59
2019-03-16T05:42:48.100Z,-0.6
2019-03-16T05:43:58.038Z,-0.56
2019-03-16T05:45:07.956Z,-0.6
2019-03-16T05:46:17.937Z,-0.63
2019-03-16T05:47:27.859Z,-0.67
2019-03-16T05:48:37.926Z,-0.69
2019-03-16T05:49:47.848Z,-0.7
2019-03-16T05:50:59.983Z,-0.67
2019-03-16T05:52:09.924Z,-0.74
2019-03-16T05:53:19.838Z,-0.78
2019-03-16T05:54:29.864Z,-0.74
2019-03-16T05:55:39.809Z,-0.75
2019-03-16T05:56:49.490Z,-0.8
2019-03-16T05:57:59.429Z,-0.89
2019-03-16T05:59:09.347Z,-0.99
2019-03-16T06:00:19.369Z,-0.91
2019-03-16T06:01:29.294Z,-1.03
2019-03-16T06:02:39.248Z,-1.17
2019-03-16T06:03:49.177Z,-1.19
2019-03-16T06:05:12.251Z,-1.3
2019-03-16T06:06:22.231Z,-1.38
2019-03-16T06:07:34.929Z,-1.46
2019-03-16T06:08:44.964Z,-1.45
2019-03-16T06:09:54.881Z,-1.53
2019-03-16T06:11:04.800Z,-1.64
2019-03-16T06:12:14.714Z,-1.72
2019-03-16T06:13:24.377Z,-1.71
2019-03-16T06:14:34.299Z,-1.68
2019-03-16T06:15:44.212Z,-1.87
2019-03-16T06:16:54.207Z,-1.86
2019-03-16T06:18:04.121Z,-1.84
2019-03-16T06:19:14.039Z,-1.89
2019-03-16T06:20:23.962Z,-1.86
2019-03-16T06:21:33.879Z,-1.87
2019-03-16T06:22:43.851Z,-1.84
2019-03-16T06:23:53.780Z,-1.86
2019-03-16T06:25:03.703Z,-1.81
2019-03-16T06:26:13.759Z,-1.81
2019-03-16T06:27:23.694Z,-1.63
2019-03-16T06:28:33.663Z,-1.72
2019-03-16T06:29:43.578Z,-1.68
2019-03-16T06:30:53.492Z,-1.63
2019-03-16T06:32:03.409Z,-1.53
2019-03-16T06:33:13.329Z,-1.51
2019-03-16T06:34:23.355Z,-1.45
2019-03-16T06:35:34.336Z,-1.4
2019-03-16T06:36:44.253Z,-1.32
2019-03-16T06:37:54.166Z,-1.3
2019-03-16T06:39:04.087Z,-1.3
2019-03-16T06:40:14.125Z,-1.32
2019-03-16T06:41:24.049Z,-1.3
2019-03-16T06:42:33.972Z,-1.39
2019-03-16T06:43:43.892Z,-1.42
2019-03-16T06:44:53.811Z,-1.38
2019-03-16T06:46:03.776Z,-1.32
2019-03-16T06:47:13.693Z,-1.32
2019-03-16T06:48:23.612Z,-1.27
2019-03-16T06:49:33.529Z,-1.32
2019-03-16T06:50:43.450Z,-1.3
2019-03-16T06:51:53.415Z,-1.35
2019-03-16T06:53:03.337Z,-1.32
2019-03-16T06:54:13.265Z,-1.29
2019-03-16T06:55:23.252Z,-1.4
2019-03-16T06:56:33.165Z,-1.4
2019-03-16T06:57:42.890Z,-1.36
2019-03-16T06:58:52.823Z,-1.43
2019-03-16T07:00:06.147Z,-1.36
2019-03-16T07:01:16.087Z,-1.33
2019-03-16T07:02:26.071Z,-1.33
2019-03-16T07:03:36.098Z,-1.33
2019-03-16T07:04:46.021Z,-1.32
2019-03-16T07:05:55.965Z,-1.32
2019-03-16T07:07:05.883Z,-1.35
2019-03-16T07:08:15.804Z,-1.4
2019-03-16T07:09:25.776Z,-1.21
2019-03-16T07:10:35.738Z,-1.21
2019-03-16T07:11:45.663Z,-1.17
2019-03-16T07:12:55.586Z,-1.21
2019-03-16T07:14:05.513Z,-1.12
2019-03-16T07:15:15.462Z,-1.09
2019-03-16T07:16:25.454Z,-1.03
2019-03-16T07:17:35.381Z,-1.01
2019-03-16T07:18:57.984Z,-1.03
2019-03-16T07:20:08.348Z,-1.01
2019-03-16T07:21:18.323Z,-1.03
2019-03-16T07:22:28.238Z,-0.96
2019-03-16T07:23:38.558Z,-0.99
2019-03-16T07:24:51.530Z,-0.89
2019-03-16T07:26:14.006Z,-0.85
2019-03-16T07:27:31.145Z,-0.91
2019-03-16T07:28:41.065Z,-0.89
2019-03-16T07:29:50.979Z,-0.91
2019-03-16T07:31:00.702Z,-0.91
2019-03-16T07:32:10.620Z,-0.8
2019-03-16T07:33:20.540Z,-0.84
2019-03-16T07:34:30.466Z,-0.85
2019-03-16T07:35:40.380Z,-0.91
2019-03-16T07:36:50.415Z,-0.99
2019-03-16T07:38:00.333Z,-0.82
2019-03-16T07:39:10.256Z,-0.81
2019-03-16T07:40:20.174Z,-0.72
2019-03-16T07:41:30.091Z,-0.69
2019-03-16T07:42:40.062Z,-0.74
2019-03-16T07:43:49.984Z,-0.75
2019-03-16T07:45:12.418Z,-0.72
2019-03-16T07:46:22.331Z,-0.7
2019-03-16T07:47:32.249Z,-0.67
2019-03-16T07:48:42.222Z,-0.57
2019-03-16T07:49:52.145Z,-0.64
2019-03-16T07:51:02.076Z,-0.66
2019-03-16T07:52:11.996Z,-0.57
2019-03-16T07:53:22.025Z,-0.54
2019-03-16T07:54:33.706Z,-0.56
2019-03-16T07:55:46.898Z,-0.59
2019-03-16T07:56:56.825Z,-0.54
2019-03-16T07:58:06.741Z,-0.57
2019-03-16T07:59:16.710Z,-0.49
2019-03-16T08:00:26.629Z,-0.51
2019-03-16T08:01:36.550Z,-0.54
2019-03-16T08:02:46.466Z,-0.45
2019-03-16T08:03:56.138Z,-0.48
2019-03-16T08:05:19.767Z,-0.44
2019-03-16T08:06:29.689Z,-0.39
2019-03-16T08:07:41.136Z,-0.27
2019-03-16T08:08:51.187Z,-0.2
2019-03-16T08:10:03.042Z,-0.13
2019-03-16T08:11:13.512Z,-0.05
2019-03-16T08:12:23.483Z,-0.12
2019-03-16T08:13:33.419Z,-0.2
2019-03-16T08:14:43.337Z,-0.02
2019-03-16T08:15:53.358Z,0.11
2019-03-16T08:17:03.032Z,0.11
2019-03-16T08:18:13.067Z,0.29
2019-03-16T08:19:22.989Z,0.45
2019-03-16T08:20:36.467Z,0.52
2019-03-16T08:21:46.441Z,0.58
2019-03-16T08:22:56.365Z,0.66
2019-03-16T08:24:06.310Z,0.73
2019-03-16T08:25:16.235Z,0.81
2019-03-16T08:26:26.155Z,0.88
2019-03-16T08:27:36.009Z,1.09
2019-03-16T08:29:01.618Z,1.18
2019-03-16T08:30:11.559Z,1.34
2019-03-16T08:31:21.484Z,1.45
2019-03-16T08:32:31.408Z,1.52
2019-03-16T08:33:41.328Z,1.56
2019-03-16T08:34:51.251Z,1.6
2019-03-16T08:36:01.176Z,1.68
2019-03-16T08:37:11.108Z,1.82
2019-03-16T08:38:21.092Z,1.81
2019-03-16T08:39:31.014Z,1.86
2019-03-16T08:40:40.686Z,2.05
2019-03-16T08:41:50.606Z,2.1
2019-03-16T08:43:00.540Z,2.1
2019-03-16T08:44:10.514Z,2.15
2019-03-16T08:45:20.434Z,2.15
2019-03-16T08:46:30.383Z,2.14
2019-03-16T08:47:40.314Z,2.07
2019-03-16T08:48:50.241Z,1.92
2019-03-16T08:50:00.435Z,1.86
2019-03-16T08:51:10.387Z,1.89
2019-03-16T08:52:20.309Z,1.86
2019-03-16T08:53:30.237Z,2.05
2019-03-16T08:54:40.218Z,2.01
2019-03-16T08:55:50.185Z,2.04
2019-03-16T08:56:59.979Z,1.98
2019-03-16T08:58:11.227Z,1.85
2019-03-16T08:59:21.149Z,1.76
2019-03-16T09:00:32.137Z,1.79
2019-03-16T09:01:42.163Z,1.82
2019-03-16T09:02:52.089Z,1.78
2019-03-16T09:04:02.011Z,1.75
2019-03-16T09:05:11.939Z,1.75
2019-03-16T09:06:21.865Z,1.85
2019-03-16T09:07:31.898Z,1.79
2019-03-16T09:08:41.838Z,1.68
2019-03-16T09:09:51.759Z,1.63
2019-03-16T09:11:01.694Z,1.61
2019-03-16T09:12:11.619Z,1.57
2019-03-16T09:13:21.651Z,1.71
2019-03-16T09:14:31.574Z,1.75
2019-03-16T09:15:41.500Z,1.76
2019-03-16T09:16:51.421Z,1.78
2019-03-16T09:18:01.340Z,1.78
2019-03-16T09:19:11.372Z,2
2019-03-16T09:20:21.301Z,1.97
2019-03-16T09:21:31.254Z,1.97
2019-03-16T09:22:41.180Z,2.03
2019-03-16T09:23:51.188Z,2.08
2019-03-16T09:25:01.216Z,2.01
2019-03-16T09:26:11.162Z,2.16
2019-03-16T09:27:32.978Z,2.28
2019-03-16T09:28:42.907Z,2.4
2019-03-16T09:30:05.007Z,2.33
2019-03-16T09:31:14.937Z,2.51
2019-03-16T09:32:24.617Z,2.58
2019-03-16T09:33:34.551Z,2.77
2019-03-16T09:34:44.480Z,2.85
2019-03-16T09:35:54.258Z,3.01
2019-03-16T09:37:04.185Z,3.09
2019-03-16T09:38:14.130Z,3.16
2019-03-16T09:39:24.060Z,3.05
2019-03-16T09:40:33.994Z,2.97
2019-03-16T09:41:43.918Z,3.05
2019-03-16T09:42:53.841Z,3.08
2019-03-16T09:44:06.802Z,3.18
2019-03-16T09:45:16.735Z,3.26
2019-03-16T09:46:26.673Z,3.27
2019-03-16T09:47:36.700Z,3.33
2019-03-16T09:48:46.627Z,3.27
2019-03-16T09:49:56.570Z,3.37
2019-03-16T09:51:06.498Z,3.46
2019-03-16T09:52:16.428Z,3.5
2019-03-16T09:53:26.457Z,3.36
2019-03-16T09:54:36.383Z,3.31
2019-03-16T09:55:46.306Z,3.24
2019-03-16T09:57:05.905Z,3.37
2019-03-16T09:58:15.849Z,3.46
2019-03-16T09:59:38.313Z,3.43
2019-03-16T10:00:48.246Z,3.52
2019-03-16T10:01:58.242Z,3.68
2019-03-16T10:03:08.167Z,3.81
2019-03-16T10:04:18.222Z,3.96
2019-03-16T10:05:28.143Z,4.03
2019-03-16T10:06:38.066Z,4.12
2019-03-16T10:07:48.009Z,4.27
2019-03-16T10:08:57.933Z,4.28
2019-03-16T10:10:07.909Z,4.25
2019-03-16T10:11:17.600Z,4.22
2019-03-16T10:12:27.536Z,3.99
2019-03-16T10:13:37.460Z,4.14
2019-03-16T10:14:47.389Z,4.22
2019-03-16T10:15:57.163Z,4.27
2019-03-16T10:17:07.085Z,4.27
2019-03-16T10:18:17.008Z,4.42
2019-03-16T10:19:26.933Z,4.3
2019-03-16T10:20:36.866Z,4.32
2019-03-16T10:21:46.796Z,4.32
2019-03-16T10:22:56.728Z,4.43
2019-03-16T10:24:06.658Z,4.5
2019-03-16T10:25:16.631Z,4.52
2019-03-16T10:26:26.558Z,4.6
2019-03-16T10:27:36.543Z,4.49
2019-03-16T10:28:48.677Z,4.56
2019-03-16T10:29:58.614Z,4.46
2019-03-16T10:31:08.286Z,4.46
2019-03-16T10:32:18.212Z,4.27
2019-03-16T10:33:28.187Z,4.39
2019-03-16T10:34:38.117Z,4.67
2019-03-16T10:35:48.049Z,4.79
2019-03-16T10:36:57.974Z,4.97
2019-03-16T10:38:07.904Z,4.97
2019-03-16T10:39:17.942Z,5.19
2019-03-16T10:40:27.867Z,5.33
2019-03-16T10:41:37.808Z,5.51
2019-03-16T10:42:47.737Z,5.67
2019-03-16T10:43:57.666Z,5.87
2019-03-16T10:45:07.745Z,5.94
2019-03-16T10:46:17.690Z,6.19
2019-03-16T10:47:27.619Z,6.35
2019-03-16T10:48:37.606Z,6.47
2019-03-16T10:49:47.533Z,6.6
2019-03-16T10:50:57.556Z,6.72
2019-03-16T10:52:07.480Z,6.7
2019-03-16T10:53:17.413Z,6.74
2019-03-16T10:54:27.345Z,6.8
2019-03-16T10:55:37.278Z,6.87
2019-03-16T10:56:47.312Z,6.96
2019-03-16T10:57:57.237Z,7.15
2019-03-16T10:59:07.171Z,7.23
2019-03-16T11:00:17.097Z,7.31
2019-03-16T11:01:26.869Z,7.25
2019-03-16T11:02:36.906Z,7.4
2019-03-16T11:03:46.839Z,7.46
2019-03-16T11:04:56.771Z,7.61
2019-03-16T11:06:06.700Z,7.59
2019-03-16T11:07:16.625Z,7.56
2019-03-16T11:08:26.656Z,7.55
2019-03-16T11:09:36.595Z,7.59
2019-03-16T11:10:46.528Z,7.58
2019-03-16T11:11:56.462Z,7.5
2019-03-16T11:13:06.389Z,7.4
2019-03-16T11:14:16.414Z,7.5
2019-03-16T11:15:26.092Z,7.58
2019-03-16T11:16:36.064Z,7.55
2019-03-16T11:17:45.996Z,7.58
2019-03-16T11:18:55.923Z,7.59
2019-03-16T11:20:05.996Z,7.56
2019-03-16T11:21:15.933Z,7.66
2019-03-16T11:22:25.866Z,7.75
2019-03-16T11:23:35.796Z,7.67
2019-03-16T11:24:45.720Z,7.74
2019-03-16T11:25:55.699Z,7.8
2019-03-16T11:27:05.626Z,7.72
2019-03-16T11:28:15.572Z,7.88
2019-03-16T11:29:25.498Z,7.95
2019-03-16T11:30:35.477Z,8.14
2019-03-16T11:31:45.521Z,8.18
2019-03-16T11:32:55.450Z,8.26
2019-03-16T11:34:05.384Z,8.36
2019-03-16T11:35:15.331Z,8.45
2019-03-16T11:36:25.272Z,8.59
2019-03-16T11:37:35.356Z,8.59
2019-03-16T11:38:45.289Z,8.66
2019-03-16T11:39:55.287Z,8.75
2019-03-16T11:41:05.163Z,8.78
2019-03-16T11:42:15.092Z,8.82
2019-03-16T11:43:24.882Z,8.97
2019-03-16T11:44:34.818Z,9.05
2019-03-16T11:45:44.747Z,9.15
2019-03-16T11:46:54.678Z,9.33
2019-03-16T11:48:04.631Z,9.59
2019-03-16T11:49:14.573Z,9.85
2019-03-16T11:50:24.505Z,10.38
2019-03-16T11:51:34.431Z,10.59
2019-03-16T11:52:44.370Z,10.67
2019-03-16T11:53:54.303Z,10.72
2019-03-16T11:55:04.332Z,11.13
2019-03-16T11:56:22.769Z,11.53
2019-03-16T11:57:32.731Z,12.29
2019-03-16T11:58:42.665Z,12.86
2019-03-16T11:59:52.595Z,13.5
2019-03-16T12:01:02.523Z,14.11
2019-03-16T12:02:12.455Z,14.55
2019-03-16T12:03:22.398Z,14.89
2019-03-16T12:04:32.331Z,15.15
2019-03-16T12:05:42.333Z,15.76
2019-03-16T12:06:52.312Z,16.08
2019-03-16T12:08:02.244Z,16.44
2019-03-16T12:09:12.239Z,16.59
2019-03-16T12:10:22.195Z,16.43
2019-03-16T12:11:32.131Z,16.12
2019-03-16T12:12:42.189Z,15.8
2019-03-16T12:13:52.139Z,15.48
2019-03-16T12:15:02.083Z,15.27
2019-03-16T12:16:12.097Z,14.99
2019-03-16T12:17:22.037Z,14.7
2019-03-16T12:18:32.128Z,14.68
2019-03-16T12:19:42.068Z,14.66
2019-03-16T12:20:52.009Z,14.74
2019-03-16T12:22:01.946Z,15.17
2019-03-16T12:23:11.881Z,15.47
2019-03-16T12:24:21.869Z,15.87
2019-03-16T12:25:31.803Z,15.92
2019-03-16T12:26:41.748Z,16.32
2019-03-16T12:27:51.693Z,16.64
2019-03-16T12:29:01.630Z,17.05
2019-03-16T12:30:11.670Z,17.3
2019-03-16T12:31:21.612Z,17.73
2019-03-16T12:32:31.548Z,17.6
2019-03-16T12:33:41.487Z,17.34
2019-03-16T12:34:51.454Z,17.2
2019-03-16T12:36:01.505Z,16.8
2019-03-16T12:37:11.442Z,16.51
2019-03-16T12:38:21.400Z,16.13
2019-03-16T12:39:31.349Z,15.87
2019-03-16T12:40:43.440Z,15.43
2019-03-16T12:41:53.539Z,15.32
2019-03-16T12:43:03.491Z,15.17
2019-03-16T12:44:13.427Z,15.12
2019-03-16T12:45:25.639Z,14.99
2019-03-16T12:46:35.570Z,14.92
2019-03-16T12:47:45.564Z,14.9
2019-03-16T12:48:55.571Z,14.9
2019-03-16T12:50:05.513Z,14.99
2019-03-16T12:51:15.538Z,15.15
2019-03-16T12:52:25.471Z,15.27
2019-03-16T12:53:35.507Z,15.65
2019-03-16T12:54:47.304Z,16.09
2019-03-16T12:55:57.243Z,16.62
2019-03-16T12:57:07.300Z,16.97
2019-03-16T12:58:17.238Z,17.09
2019-03-16T12:59:27.282Z,17.47
2019-03-16T13:00:37.218Z,17.86
2019-03-16T13:01:47.199Z,18.28
2019-03-16T13:02:57.283Z,18.55
2019-03-16T13:04:07.296Z,18.81
2019-03-16T13:05:17.296Z,18.98
2019-03-16T13:06:27.253Z,19
2019-03-16T13:07:37.195Z,19.09
2019-03-16T13:08:47.152Z,19.23
2019-03-16T13:09:57.210Z,19.52
2019-03-16T13:11:07.006Z,19.64
2019-03-16T13:12:16.949Z,19.63
2019-03-16T13:13:26.895Z,19.63
2019-03-16T13:14:36.890Z,19.64
2019-03-16T13:15:46.588Z,19.38
2019-03-16T13:16:56.794Z,19.19
2019-03-16T13:18:06.739Z,18.78
2019-03-16T13:19:17.442Z,18.53
2019-03-16T13:20:27.382Z,18.08
2019-03-16T13:21:37.321Z,17.66
2019-03-16T13:22:49.335Z,17.07
2019-03-16T13:23:59.300Z,16.62
2019-03-16T13:25:09.280Z,16.22
2019-03-16T13:26:19.286Z,15.75
2019-03-16T13:27:29.229Z,15.33
2019-03-16T13:28:40.637Z,15.02
2019-03-16T13:30:01.351Z,14.48
2019-03-16T13:31:11.343Z,14.28
2019-03-16T13:32:21.352Z,14.16
2019-03-16T13:33:31.346Z,13.89
2019-03-16T13:34:41.380Z,13.93
2019-03-16T13:35:51.339Z,13.87
2019-03-16T13:37:01.287Z,13.62
2019-03-16T13:38:11.230Z,13.33
2019-03-16T13:39:22.672Z,13.28
2019-03-16T13:40:32.870Z,12.37
2019-03-16T13:41:42.846Z,11.53
2019-03-16T13:42:52.814Z,11.01
2019-03-16T13:44:02.790Z,10.65
2019-03-16T13:45:12.826Z,10.48
2019-03-16T13:46:22.781Z,10.59
2019-03-16T13:47:32.771Z,10.64
2019-03-16T13:48:42.704Z,10.46
2019-03-16T13:49:52.692Z,10.39
2019-03-16T13:51:02.685Z,10.59
2019-03-16T13:52:13.106Z,10.64
2019-03-16T13:53:23.565Z,10.64
2019-03-16T13:54:34.099Z,10.38
2019-03-16T13:55:44.072Z,10.02
2019-03-16T13:56:54.078Z,10.1
2019-03-16T13:58:04.051Z,10.12
2019-03-16T13:59:14.573Z,10.21
2019-03-16T14:00:25.278Z,10.12
2019-03-16T14:01:35.507Z,10.17
2019-03-16T14:02:45.556Z,10.28
2019-03-16T14:03:55.274Z,10.34
2019-03-16T14:05:08.808Z,10.46
2019-03-16T14:06:19.701Z,10.45
2019-03-16T14:07:29.745Z,10.57
2019-03-16T14:08:39.703Z,10.51
2019-03-16T14:09:49.670Z,10.51
2019-03-16T14:11:00.032Z,10.51
2019-03-16T14:12:10.740Z,10.61
2019-03-16T14:13:21.092Z,10.58
2019-03-16T14:14:31.059Z,10.57
2019-03-16T14:15:41.024Z,10.59
2019-03-16T14:16:50.974Z,10.67
2019-03-16T14:18:03.032Z,10.67
2019-03-16T14:19:13.490Z,10.76
2019-03-16T14:20:23.957Z,10.69
2019-03-16T14:21:34.638Z,10.82
2019-03-16T14:22:44.095Z,10.97
2019-03-16T14:23:54.050Z,10.83
2019-03-16T14:25:04.005Z,11.01
2019-03-16T14:26:15.206Z,11.01
2019-03-16T14:27:25.168Z,11.01
2019-03-16T14:28:35.522Z,11.04
2019-03-16T14:29:46.036Z,11.02
2019-03-16T14:30:56.363Z,11.01
2019-03-16T14:32:06.900Z,11.15
2019-03-16T14:33:16.845Z,11.18
2019-03-16T14:34:26.808Z,11.4
2019-03-16T14:35:36.759Z,11.4
2019-03-16T14:36:46.707Z,11.4
2019-03-16T14:37:56.969Z,11.59
2019-03-16T14:39:07.146Z,11.67
2019-03-16T14:40:17.683Z,11.83
2019-03-16T14:41:28.301Z,11.96
2019-03-16T14:42:38.693Z,12.35
2019-03-16T14:43:48.672Z,12.25
2019-03-16T14:44:58.473Z,12.35
2019-03-16T14:46:08.431Z,12.48
2019-03-16T14:47:18.544Z,12.5
2019-03-16T14:48:28.808Z,12.61
2019-03-16T14:49:39.201Z,13.01
2019-03-16T14:50:49.495Z,13.12
2019-03-16T14:51:59.460Z,12.93
2019-03-16T14:53:09.402Z,12.83
2019-03-16T14:54:19.332Z,12.51
2019-03-16T14:55:29.270Z,12.53
2019-03-16T14:56:39.203Z,12.66
2019-03-16T14:57:49.137Z,12.63
2019-03-16T14:58:59.068Z,12.45
2019-03-16T15:00:09.016Z,12.4
2019-03-16T15:01:18.954Z,12.39
2019-03-16T15:02:28.883Z,12.07
2019-03-16T15:03:38.815Z,11.78
2019-03-16T15:04:48.740Z,11.59
2019-03-16T15:05:58.675Z,11.22
2019-03-16T15:07:08.371Z,10.87
2019-03-16T15:08:18.399Z,10.71
2019-03-16T15:09:28.333Z,10.51
2019-03-16T15:10:38.274Z,10.23
2019-03-16T15:11:48.231Z,10.12
2019-03-16T15:12:58.164Z,9.9
2019-03-16T15:14:20.688Z,9.62
2019-03-16T15:15:31.028Z,9.42
2019-03-16T15:16:40.956Z,9.22
2019-03-16T15:17:51.003Z,8.82